Time;durP1;ratioP1;P1;durP2;ratioP2;P2;SDS_P1;SDS_P2;PMS_P1;PMS_P2;Temp;Humidity;BMP_temperature;BMP_pressure;BME280_temperature;BME280_humidity;BME280_pressure;Samples;Min_cycle;Max_cycle;Signal;HPM_P1;HPM_P2
2022/09/11 00:01:47;;;;;;;58.60;3.20;;;;;;;;;;5074245;28;20828;-65
2022/09/11 00:04:14;;;;;;;58.60;3.00;;;;;;;;;;5074522;28;20493;-65
2022/09/11 00:06:41;;;;;;;59.80;2.97;;;;;;;;;;5074041;28;20450;-66
2022/09/11 00:09:09;;;;;;;58.27;2.73;;;;;;;;;;5073927;28;20659;-66
2022/09/11 00:11:39;;;;;;;58.80;3.57;;;;;;;;;;5074248;28;20819;-66
2022/09/11 00:14:06;;;;;;;59.23;3.33;;;;;;;;;;5074124;28;20467;-66
2022/09/11 00:16:34;;;;;;;58.50;2.97;;;;;;;;;;5074325;28;20461;-66
2022/09/11 00:19:04;;;;;;;57.97;2.53;;;;;;;;;;5073965;28;20443;-66
2022/09/11 00:21:31;;;;;;;58.37;2.70;;;;;;;;;;5073981;28;20449;-65
2022/09/11 00:23:59;;;;;;;58.17;2.83;;;;;;;;;;5073924;28;20517;-66
2022/09/11 00:26:26;;;;;;;58.57;3.00;;;;;;;;;;5074414;28;20450;-67
2022/09/11 00:28:54;;;;;;;58.40;2.90;;;;;;;;;;5073465;28;21089;-66
2022/09/11 00:31:23;;;;;;;58.60;2.90;;;;;;;;;;5074089;28;20461;-66
2022/09/11 00:33:50;;;;;;;58.67;3.00;;;;;;;;;;5073555;28;20489;-66
2022/09/11 00:36:19;;;;;;;58.00;2.70;;;;;;;;;;5073765;28;20446;-66
2022/09/11 00:38:47;;;;;;;63.40;3.07;;;;;;;;;;5073280;28;21021;-66
2022/09/11 00:41:15;;;;;;;58.50;2.97;;;;;;;;;;5073634;28;20817;-65
2022/09/11 00:43:54;;;;;;;59.07;3.47;;;;;;;;;;5073496;28;20484;-66
2022/09/11 00:46:21;;;;;;;58.47;2.93;;;;;;;;;;5073710;28;20488;-66
2022/09/11 00:48:49;;;;;;;59.00;3.17;;;;;;;;;;5073288;28;20447;-66
2022/09/11 00:51:18;;;;;;;58.40;3.07;;;;;;;;;;5073568;28;20458;-66
2022/09/11 00:53:47;;;;;;;58.43;2.80;;;;;;;;;;5073244;28;20495;-66
2022/09/11 00:56:15;;;;;;;59.20;2.80;;;;;;;;;;5073618;28;20500;-66
2022/09/11 00:58:43;;;;;;;61.70;3.33;;;;;;;;;;5073112;28;20490;-66
2022/09/11 01:01:12;;;;;;;58.37;3.10;;;;;;;;;;5073400;28;20447;-66
2022/09/11 01:03:39;;;;;;;58.67;3.00;;;;;;;;;;5073205;28;20471;-66
2022/09/11 01:06:06;;;;;;;58.30;2.80;;;;;;;;;;5073166;28;20450;-66
2022/09/11 01:08:33;;;;;;;59.30;2.87;;;;;;;;;;5072767;28;20958;-67
2022/09/11 01:11:11;;;;;;;58.93;3.17;;;;;;;;;;5073250;28;20462;-66
2022/09/11 01:13:40;;;;;;;58.30;2.90;;;;;;;;;;5073163;28;20478;-66
2022/09/11 01:16:12;;;;;;;60.37;3.10;;;;;;;;;;5073054;28;20461;-66
2022/09/11 01:18:41;;;;;;;59.10;2.90;;;;;;;;;;5071662;28;20487;-66
2022/09/11 01:21:23;;;;;;;58.17;2.83;;;;;;;;;;5073106;28;20821;-65
2022/09/11 01:24:01;;;;;;;58.23;2.90;;;;;;;;;;5072964;28;20481;-66
2022/09/11 01:26:37;;;;;;;58.70;2.70;;;;;;;;;;5072804;28;20450;-66
2022/09/11 01:29:09;;;;;;;63.13;2.70;;;;;;;;;;5072322;28;20474;-65
2022/09/11 01:31:44;;;;;;;64.97;3.20;;;;;;;;;;5072961;28;20805;-65
2022/09/11 01:34:14;;;;;;;58.50;3.07;;;;;;;;;;5072418;28;21068;-65
2022/09/11 01:36:44;;;;;;;58.17;2.80;;;;;;;;;;5072703;28;20443;-66
2022/09/11 01:39:12;;;;;;;58.20;2.50;;;;;;;;;;5070965;28;20479;-66
2022/09/11 01:41:41;;;;;;;58.17;2.70;;;;;;;;;;5071422;28;20450;-65
2022/09/11 01:44:12;;;;;;;69.30;3.47;;;;;;;;;;5072402;28;20477;-65
2022/09/11 01:46:41;;;;;;;58.30;2.70;;;;;;;;;;5072481;28;20512;-65
2022/09/11 01:49:11;;;;;;;57.87;2.50;;;;;;;;;;5071993;28;20453;-65
2022/09/11 01:51:39;;;;;;;59.17;3.00;;;;;;;;;;5072523;28;20451;-65
2022/09/11 01:54:09;;;;;;;58.17;3.10;;;;;;;;;;5072325;28;20470;-65
2022/09/11 01:56:39;;;;;;;58.87;3.10;;;;;;;;;;5072181;28;20972;-65
2022/09/11 01:59:07;;;;;;;58.70;2.93;;;;;;;;;;5071797;28;20490;-65
2022/09/11 02:01:37;;;;;;;58.17;2.90;;;;;;;;;;5072137;28;20445;-66
2022/09/11 02:04:07;;;;;;;59.13;3.00;;;;;;;;;;5072037;28;20466;-65
2022/09/11 02:06:35;;;;;;;58.20;3.03;;;;;;;;;;5072294;28;20532;-65
2022/09/11 02:09:05;;;;;;;58.20;3.30;;;;;;;;;;5071823;28;20442;-66
2022/09/11 02:11:34;;;;;;;59.07;2.80;;;;;;;;;;5071986;28;20972;-65
2022/09/11 02:14:04;;;;;;;58.87;3.47;;;;;;;;;;5071942;28;20470;-65
2022/09/11 02:16:36;;;;;;;58.70;2.93;;;;;;;;;;5072234;28;20459;-65
2022/09/11 02:19:05;;;;;;;58.27;2.80;;;;;;;;;;5071730;28;20490;-65
2022/09/11 02:21:33;;;;;;;60.80;2.77;;;;;;;;;;5072018;28;20448;-65
2022/09/11 02:24:00;;;;;;;58.20;2.77;;;;;;;;;;5071715;28;20475;-65
2022/09/11 02:26:29;;;;;;;58.30;3.27;;;;;;;;;;5071937;28;20454;-65
2022/09/11 02:28:57;;;;;;;62.10;3.13;;;;;;;;;;5071420;28;20451;-65
2022/09/11 02:31:24;;;;;;;58.80;2.90;;;;;;;;;;5071844;28;20447;-65
2022/09/11 02:33:51;;;;;;;58.37;3.00;;;;;;;;;;5071751;28;20948;-65
2022/09/11 02:36:34;;;;;;;58.50;3.30;;;;;;;;;;5071944;28;20451;-65
2022/09/11 02:39:08;;;;;;;58.97;3.10;;;;;;;;;;5069442;28;20535;-65
2022/09/11 02:41:38;;;;;;;58.80;2.90;;;;;;;;;;5072208;28;20838;-65
2022/09/11 02:44:09;;;;;;;58.30;2.90;;;;;;;;;;5071835;28;20479;-65
2022/09/11 02:46:49;;;;;;;58.30;3.13;;;;;;;;;;5072152;28;20461;-65
2022/09/11 02:49:21;;;;;;;58.70;2.90;;;;;;;;;;5071310;28;20443;-65
2022/09/11 02:51:55;;;;;;;58.23;2.90;;;;;;;;;;5071562;28;20816;-65
2022/09/11 02:54:25;;;;;;;58.13;2.77;;;;;;;;;;5071714;28;20520;-65
2022/09/11 02:56:55;;;;;;;59.40;3.40;;;;;;;;;;5071538;28;20969;-65
2022/09/11 02:59:24;;;;;;;58.77;3.30;;;;;;;;;;5071278;28;20526;-65
2022/09/11 03:01:52;;;;;;;58.57;3.13;;;;;;;;;;5071613;28;20443;-65
2022/09/11 03:04:21;;;;;;;58.90;3.13;;;;;;;;;;5071359;28;20882;-65
2022/09/11 03:06:48;;;;;;;61.00;2.77;;;;;;;;;;5071662;28;20463;-65
2022/09/11 03:09:16;;;;;;;58.90;3.30;;;;;;;;;;5071249;28;20457;-65
2022/09/11 03:11:44;;;;;;;58.70;3.60;;;;;;;;;;5071568;28;20495;-65
2022/09/11 03:14:12;;;;;;;59.20;3.80;;;;;;;;;;5071392;28;20474;-65
2022/09/11 03:16:39;;;;;;;58.70;3.37;;;;;;;;;;5071766;28;20927;-65
2022/09/11 03:19:07;;;;;;;58.70;3.77;;;;;;;;;;5071093;28;20487;-65
2022/09/11 03:21:35;;;;;;;58.43;3.17;;;;;;;;;;5071546;28;20451;-65
2022/09/11 03:24:03;;;;;;;58.53;3.40;;;;;;;;;;5071310;28;20855;-65
2022/09/11 03:26:31;;;;;;;59.17;3.87;;;;;;;;;;5071750;28;20840;-65
2022/09/11 03:29:00;;;;;;;58.60;3.30;;;;;;;;;;5070931;28;20476;-65
2022/09/11 03:31:27;;;;;;;59.37;3.40;;;;;;;;;;5071167;28;20454;-65
2022/09/11 03:33:54;;;;;;;59.57;4.00;;;;;;;;;;5071006;28;20482;-65
2022/09/11 03:36:22;;;;;;;58.80;3.70;;;;;;;;;;5071358;28;20451;-65
2022/09/11 03:38:50;;;;;;;61.30;3.80;;;;;;;;;;5070688;28;20478;-65
2022/09/11 03:41:17;;;;;;;61.67;3.80;;;;;;;;;;5071226;28;20555;-65
2022/09/11 03:43:44;;;;;;;59.37;3.87;;;;;;;;;;5074359;28;20476;-65
2022/09/11 03:46:12;;;;;;;58.70;3.40;;;;;;;;;;5074978;28;20454;-65
2022/09/11 03:48:39;;;;;;;59.30;3.50;;;;;;;;;;5074323;28;20935;-65
2022/09/11 03:51:06;;;;;;;58.73;3.33;;;;;;;;;;5074751;28;20461;-65
2022/09/11 03:53:34;;;;;;;58.47;3.37;;;;;;;;;;5074427;28;20978;-65
2022/09/11 03:56:02;;;;;;;58.97;3.90;;;;;;;;;;5074491;28;20451;-65
2022/09/11 03:58:30;;;;;;;59.83;3.70;;;;;;;;;;5074144;28;20489;-66
2022/09/11 04:00:57;;;;;;;60.00;4.47;;;;;;;;;;5074371;28;20447;-65
2022/09/11 04:03:25;;;;;;;59.43;3.47;;;;;;;;;;5074504;28;20837;-65
2022/09/11 04:06:00;;;;;;;58.77;3.30;;;;;;;;;;5074531;28;20453;-65
2022/09/11 04:08:32;;;;;;;58.53;3.50;;;;;;;;;;5074243;28;20540;-65
2022/09/11 04:11:00;;;;;;;59.47;4.50;;;;;;;;;;5074221;28;20458;-65
2022/09/11 04:13:28;;;;;;;58.37;3.20;;;;;;;;;;5074366;28;20468;-65
2022/09/11 04:15:58;;;;;;;59.40;3.90;;;;;;;;;;5074168;28;20450;-65
2022/09/11 04:18:27;;;;;;;59.27;3.97;;;;;;;;;;5074186;28;20486;-65
2022/09/11 04:20:54;;;;;;;60.07;3.70;;;;;;;;;;5073883;28;20451;-65
2022/09/11 04:23:21;;;;;;;61.90;4.20;;;;;;;;;;5073886;28;20467;-65
2022/09/11 04:25:48;;;;;;;58.80;3.40;;;;;;;;;;5074247;28;20470;-65
2022/09/11 04:28:15;;;;;;;58.77;3.70;;;;;;;;;;5074080;28;20825;-65
2022/09/11 04:30:42;;;;;;;59.60;4.93;;;;;;;;;;5073607;28;20454;-65
2022/09/11 04:33:09;;;;;;;63.13;4.00;;;;;;;;;;5073894;28;20839;-65
2022/09/11 04:35:40;;;;;;;58.37;3.53;;;;;;;;;;5073659;28;20470;-65
2022/09/11 04:38:08;;;;;;;63.60;3.90;;;;;;;;;;5074061;28;20466;-65
2022/09/11 04:40:35;;;;;;;60.27;4.27;;;;;;;;;;5073639;28;20458;-65
2022/09/11 04:43:03;;;;;;;61.20;3.97;;;;;;;;;;5073787;28;20837;-65
2022/09/11 04:45:32;;;;;;;59.00;3.77;;;;;;;;;;5074104;28;20530;-65
2022/09/11 04:47:59;;;;;;;58.57;3.97;;;;;;;;;;5073573;28;20508;-65
2022/09/11 04:50:29;;;;;;;58.97;3.73;;;;;;;;;;5073102;28;20452;-65
2022/09/11 04:52:58;;;;;;;59.83;3.80;;;;;;;;;;5073604;28;20478;-65
2022/09/11 04:55:26;;;;;;;59.17;3.80;;;;;;;;;;5073588;28;20451;-65
2022/09/11 04:57:53;;;;;;;59.10;3.80;;;;;;;;;;5073489;28;20871;-65
2022/09/11 05:00:20;;;;;;;60.10;4.57;;;;;;;;;;5073073;28;20549;-65
2022/09/11 05:02:48;;;;;;;59.10;3.73;;;;;;;;;;5073223;28;20443;-65
2022/09/11 05:05:15;;;;;;;59.20;4.17;;;;;;;;;;5073152;28;20451;-65
2022/09/11 05:07:42;;;;;;;59.27;4.27;;;;;;;;;;5073339;28;20443;-65
2022/09/11 05:10:11;;;;;;;60.50;4.70;;;;;;;;;;5072884;28;20790;-65
2022/09/11 05:12:38;;;;;;;59.20;4.57;;;;;;;;;;5073057;28;20451;-65
2022/09/11 05:15:06;;;;;;;58.70;3.63;;;;;;;;;;5073102;28;20512;-65
2022/09/11 05:17:33;;;;;;;58.90;3.80;;;;;;;;;;5072961;28;20457;-65
2022/09/11 05:20:00;;;;;;;59.00;3.87;;;;;;;;;;5072668;28;20482;-65
2022/09/11 05:22:27;;;;;;;62.67;5.63;;;;;;;;;;5072866;28;20458;-65
2022/09/11 05:24:54;;;;;;;59.40;4.30;;;;;;;;;;5072930;28;20467;-65
2022/09/11 05:27:23;;;;;;;59.80;4.40;;;;;;;;;;5072896;28;20516;-65
2022/09/11 05:29:50;;;;;;;61.57;4.67;;;;;;;;;;5072419;28;20826;-65
2022/09/11 05:32:17;;;;;;;59.70;4.23;;;;;;;;;;5072620;28;20448;-65
2022/09/11 05:34:44;;;;;;;59.67;4.27;;;;;;;;;;5072512;28;20478;-65
2022/09/11 05:37:11;;;;;;;62.30;4.97;;;;;;;;;;5072589;28;20822;-65
2022/09/11 05:39:38;;;;;;;60.17;4.67;;;;;;;;;;5072226;28;20491;-65
2022/09/11 05:42:05;;;;;;;60.60;4.40;;;;;;;;;;5072532;28;20447;-65
2022/09/11 05:44:35;;;;;;;59.07;4.13;;;;;;;;;;5072225;28;20474;-65
2022/09/11 05:47:02;;;;;;;58.90;3.73;;;;;;;;;;5072660;28;20451;-66
2022/09/11 05:49:30;;;;;;;59.83;4.60;;;;;;;;;;5071942;28;20451;-65
2022/09/11 05:51:57;;;;;;;59.57;4.47;;;;;;;;;;5072449;28;20531;-65
2022/09/11 05:54:24;;;;;;;59.97;4.70;;;;;;;;;;5072405;28;20467;-65
2022/09/11 05:56:51;;;;;;;61.03;4.70;;;;;;;;;;5072300;28;20449;-65
2022/09/11 05:59:19;;;;;;;59.77;4.27;;;;;;;;;;5071695;28;20483;-65
2022/09/11 06:01:48;;;;;;;62.33;5.30;;;;;;;;;;5072381;28;20458;-65
2022/09/11 06:04:17;;;;;;;60.17;4.83;;;;;;;;;;5071883;28;20482;-65
2022/09/11 06:06:46;;;;;;;60.17;4.70;;;;;;;;;;5072108;28;20451;-65
2022/09/11 06:09:13;;;;;;;61.10;4.50;;;;;;;;;;5071847;28;20478;-65
2022/09/11 06:11:40;;;;;;;61.10;4.47;;;;;;;;;;5071911;28;20454;-65
2022/09/11 06:14:08;;;;;;;62.17;4.20;;;;;;;;;;5072082;28;20494;-65
2022/09/11 06:16:35;;;;;;;60.50;5.37;;;;;;;;;;5071951;28;20986;-65
2022/09/11 06:19:03;;;;;;;60.10;5.07;;;;;;;;;;5071672;28;20489;-65
2022/09/11 06:21:30;;;;;;;60.93;5.23;;;;;;;;;;5071993;28;20505;-65
2022/09/11 06:23:58;;;;;;;60.37;4.80;;;;;;;;;;5071956;28;20475;-65
2022/09/11 06:26:26;;;;;;;61.03;4.60;;;;;;;;;;5071912;28;20823;-65
2022/09/11 06:28:53;;;;;;;60.27;4.80;;;;;;;;;;5071859;28;20435;-65
2022/09/11 06:31:21;;;;;;;59.77;4.83;;;;;;;;;;5072197;28;20827;-65
2022/09/11 06:33:49;;;;;;;62.30;4.90;;;;;;;;;;5071863;28;20479;-65
2022/09/11 06:36:18;;;;;;;60.07;5.07;;;;;;;;;;5072028;28;20487;-65
2022/09/11 06:38:46;;;;;;;59.43;4.43;;;;;;;;;;5071477;28;20936;-65
2022/09/11 06:41:14;;;;;;;60.47;4.90;;;;;;;;;;5071819;28;20931;-65
2022/09/11 06:43:42;;;;;;;59.97;4.80;;;;;;;;;;5071800;28;20463;-65
2022/09/11 06:46:11;;;;;;;60.30;4.53;;;;;;;;;;5071836;28;20470;-65
2022/09/11 06:48:39;;;;;;;62.07;5.90;;;;;;;;;;5071293;28;20451;-65
2022/09/11 06:51:07;;;;;;;61.70;5.47;;;;;;;;;;5071786;28;20444;-65
2022/09/11 06:53:36;;;;;;;60.47;4.97;;;;;;;;;;5071532;28;20987;-65
2022/09/11 06:56:03;;;;;;;59.97;5.20;;;;;;;;;;5072015;28;20455;-65
2022/09/11 06:58:30;;;;;;;63.17;6.37;;;;;;;;;;5071322;28;20947;-65
2022/09/11 07:01:02;;;;;;;60.27;4.90;;;;;;;;;;5071480;28;20483;-65
2022/09/11 07:03:29;;;;;;;61.30;5.50;;;;;;;;;;5071495;28;20521;-65
2022/09/11 07:05:56;;;;;;;61.60;5.33;;;;;;;;;;5071417;28;20471;-65
2022/09/11 07:08:23;;;;;;;60.20;5.10;;;;;;;;;;5071611;28;20454;-65
2022/09/11 07:10:52;;;;;;;61.07;4.80;;;;;;;;;;5071376;28;20824;-65
2022/09/11 07:13:19;;;;;;;60.67;5.30;;;;;;;;;;5071643;28;20551;-65
2022/09/11 07:15:48;;;;;;;60.50;5.23;;;;;;;;;;5071441;28;20454;-65
2022/09/11 07:18:16;;;;;;;59.87;4.30;;;;;;;;;;5073878;28;20451;-65
2022/09/11 07:20:43;;;;;;;60.40;5.07;;;;;;;;;;5074984;28;20483;-65
2022/09/11 07:23:11;;;;;;;63.97;5.80;;;;;;;;;;5075054;28;20463;-65
2022/09/11 07:25:39;;;;;;;60.30;4.10;;;;;;;;;;5075280;28;20447;-65
2022/09/11 07:28:07;;;;;;;70.40;6.10;;;;;;;;;;5075044;28;20509;-66
2022/09/11 07:30:34;;;;;;;60.87;4.90;;;;;;;;;;5072856;28;20451;-64
2022/09/11 07:33:01;;;;;;;60.70;5.10;;;;;;;;;;5074632;28;20463;-65
2022/09/11 07:35:29;;;;;;;62.77;5.77;;;;;;;;;;5074708;28;20975;-64
2022/09/11 07:37:56;;;;;;;61.40;4.77;;;;;;;;;;5074854;28;20604;-65
2022/09/11 07:40:24;;;;;;;59.27;4.40;;;;;;;;;;5074286;28;21018;-65
2022/09/11 07:42:51;;;;;;;61.77;5.50;;;;;;;;;;5074660;28;20447;-65
2022/09/11 07:45:20;;;;;;;60.50;4.20;;;;;;;;;;5074494;28;20451;-66
2022/09/11 07:47:47;;;;;;;60.17;4.93;;;;;;;;;;5074417;28;20459;-65
2022/09/11 07:50:14;;;;;;;60.37;4.70;;;;;;;;;;5074365;28;20443;-64
2022/09/11 07:52:42;;;;;;;60.77;5.10;;;;;;;;;;5074343;28;20497;-64
2022/09/11 07:55:09;;;;;;;59.77;4.20;;;;;;;;;;5074527;28;20500;-65
2022/09/11 07:57:36;;;;;;;59.70;4.67;;;;;;;;;;5074300;28;20454;-65
2022/09/11 08:00:05;;;;;;;60.80;5.20;;;;;;;;;;5073831;28;20479;-64
2022/09/11 08:02:34;;;;;;;59.60;4.40;;;;;;;;;;5074271;28;20940;-65
2022/09/11 08:05:01;;;;;;;60.53;4.50;;;;;;;;;;5074155;28;20444;-64
2022/09/11 08:07:29;;;;;;;62.27;5.10;;;;;;;;;;5074301;28;20448;-65
2022/09/11 08:09:56;;;;;;;59.60;4.50;;;;;;;;;;5073888;28;20550;-64
2022/09/11 08:12:24;;;;;;;61.93;4.20;;;;;;;;;;5074075;28;20966;-64
2022/09/11 08:14:51;;;;;;;59.60;4.27;;;;;;;;;;5073961;28;20470;-65
2022/09/11 08:17:18;;;;;;;63.00;4.93;;;;;;;;;;5074187;28;20443;-65
2022/09/11 08:19:46;;;;;;;59.73;4.50;;;;;;;;;;5073718;28;20852;-63
2022/09/11 08:22:13;;;;;;;60.57;5.00;;;;;;;;;;5074075;28;20460;-64
2022/09/11 08:24:40;;;;;;;58.77;4.23;;;;;;;;;;5073972;28;20851;-65
2022/09/11 08:27:08;;;;;;;59.80;4.30;;;;;;;;;;5073675;28;20451;-64
2022/09/11 08:29:35;;;;;;;61.17;5.13;;;;;;;;;;5073370;28;20462;-65
2022/09/11 08:32:02;;;;;;;61.00;4.97;;;;;;;;;;5073976;28;20443;-64
2022/09/11 08:34:29;;;;;;;60.80;4.47;;;;;;;;;;5073663;28;20479;-64
2022/09/11 08:36:58;;;;;;;59.47;4.43;;;;;;;;;;5073785;28;20451;-65
2022/09/11 08:39:25;;;;;;;59.87;4.33;;;;;;;;;;5073261;28;20443;-65
2022/09/11 08:41:55;;;;;;;59.90;4.63;;;;;;;;;;5073535;28;20454;-64
2022/09/11 08:44:23;;;;;;;60.67;5.23;;;;;;;;;;5073719;28;20557;-64
2022/09/11 08:46:53;;;;;;;59.63;4.10;;;;;;;;;;5073348;28;20443;-64
2022/09/11 08:49:24;;;;;;;59.90;4.30;;;;;;;;;;5072936;28;20891;-64
2022/09/11 08:51:51;;;;;;;60.83;4.57;;;;;;;;;;5073258;28;21152;-64
2022/09/11 08:54:26;;;;;;;60.10;4.80;;;;;;;;;;5072951;28;20477;-64
2022/09/11 08:56:54;;;;;;;60.00;5.10;;;;;;;;;;5073047;28;20450;-64
2022/09/11 08:59:27;;;;;;;60.17;5.07;;;;;;;;;;5072782;28;20463;-64
2022/09/11 09:01:58;;;;;;;59.67;4.90;;;;;;;;;;5073079;28;20739;-64
2022/09/11 09:04:38;;;;;;;61.90;4.80;;;;;;;;;;5072953;28;20983;-64
2022/09/11 09:07:08;;;;;;;60.70;4.47;;;;;;;;;;5072880;28;20458;-64
2022/09/11 09:09:41;;;;;;;59.47;3.90;;;;;;;;;;5072514;28;20454;-64
2022/09/11 09:12:14;;;;;;;59.43;4.07;;;;;;;;;;5072870;28;20485;-64
2022/09/11 09:15:00;;;;;;;58.70;3.90;;;;;;;;;;5072839;28;20845;-64
2022/09/11 09:17:30;;;;;;;60.23;4.97;;;;;;;;;;5072356;28;20448;-64
2022/09/11 09:20:00;;;;;;;60.10;4.70;;;;;;;;;;5072161;28;20692;-64
2022/09/11 09:22:32;;;;;;;59.90;4.00;;;;;;;;;;5070208;28;20455;-64
2022/09/11 09:25:02;;;;;;;58.90;4.07;;;;;;;;;;5072957;28;20448;-64
2022/09/11 09:27:32;;;;;;;60.60;5.00;;;;;;;;;;5072269;28;20452;-64
2022/09/11 09:30:00;;;;;;;59.50;4.53;;;;;;;;;;5072183;28;20450;-64
2022/09/11 09:32:31;;;;;;;58.90;3.63;;;;;;;;;;5072269;28;20973;-64
2022/09/11 09:35:00;;;;;;;62.10;4.40;;;;;;;;;;5072354;28;20491;-64
2022/09/11 09:37:28;;;;;;;59.60;4.67;;;;;;;;;;5072223;28;20452;-64
2022/09/11 09:39:56;;;;;;;60.40;4.30;;;;;;;;;;5071315;28;20490;-64
2022/09/11 09:42:38;;;;;;;62.47;4.20;;;;;;;;;;5072364;28;20450;-64
2022/09/11 09:45:33;;;;;;;60.27;4.23;;;;;;;;;;5069956;28;20459;-64
2022/09/11 09:48:00;;;;;;;59.60;4.20;;;;;;;;;;5071971;28;20469;-64
2022/09/11 09:50:29;;;;;;;59.80;4.07;;;;;;;;;;5071810;28;20447;-64
2022/09/11 09:53:00;;;;;;;60.97;4.07;;;;;;;;;;5072466;28;20459;-64
2022/09/11 09:55:27;;;;;;;59.57;4.33;;;;;;;;;;5069676;28;21056;-64
2022/09/11 09:57:54;;;;;;;59.00;4.00;;;;;;;;;;5072117;28;20444;-64
2022/09/11 10:00:21;;;;;;;59.67;4.10;;;;;;;;;;5071743;28;20490;-64
2022/09/11 10:02:52;;;;;;;58.40;3.30;;;;;;;;;;5071758;28;20532;-64
2022/09/11 10:05:21;;;;;;;59.90;3.87;;;;;;;;;;5072230;28;20451;-64
2022/09/11 10:07:50;;;;;;;59.10;3.90;;;;;;;;;;5072033;28;20546;-64
2022/09/11 10:10:27;;;;;;;58.80;3.67;;;;;;;;;;5071761;28;20451;-64
2022/09/11 10:12:55;;;;;;;58.60;3.27;;;;;;;;;;5071823;28;20463;-64
2022/09/11 10:15:24;;;;;;;58.80;3.70;;;;;;;;;;5071872;28;20443;-64
2022/09/11 10:17:53;;;;;;;60.03;3.80;;;;;;;;;;5071544;28;20948;-64
2022/09/11 10:20:25;;;;;;;58.90;3.40;;;;;;;;;;5071643;28;20531;-64
2022/09/11 10:22:53;;;;;;;59.00;3.93;;;;;;;;;;5071682;28;20455;-64
2022/09/11 10:25:22;;;;;;;58.60;3.60;;;;;;;;;;5071696;28;20443;-64
2022/09/11 10:27:55;;;;;;;59.07;3.70;;;;;;;;;;5068675;28;20455;-64
2022/09/11 10:30:27;;;;;;;68.10;3.83;;;;;;;;;;5071750;28;21022;-64
2022/09/11 10:32:57;;;;;;;60.93;3.40;;;;;;;;;;5071802;28;20470;-62
2022/09/11 10:35:26;;;;;;;59.40;3.57;;;;;;;;;;5071677;28;20481;-62
2022/09/11 10:38:08;;;;;;;58.87;3.40;;;;;;;;;;5071705;28;20450;-62
2022/09/11 10:40:38;;;;;;;60.73;3.93;;;;;;;;;;5069028;28;20486;-62
2022/09/11 10:43:07;;;;;;;58.97;3.60;;;;;;;;;;5071696;28;20525;-62
2022/09/11 10:45:34;;;;;;;60.50;4.33;;;;;;;;;;5071608;28;20451;-62
2022/09/11 10:48:14;;;;;;;60.10;3.87;;;;;;;;;;5071474;28;20453;-62
2022/09/11 10:50:42;;;;;;;60.23;4.47;;;;;;;;;;5071844;28;20443;-62
2022/09/11 10:53:15;;;;;;;60.43;4.17;;;;;;;;;;5075464;28;20469;-62
2022/09/11 10:55:46;;;;;;;59.60;4.43;;;;;;;;;;5075819;28;20478;-62
2022/09/11 10:58:14;;;;;;;60.03;4.57;;;;;;;;;;5073033;28;20544;-62
2022/09/11 11:00:42;;;;;;;60.70;4.70;;;;;;;;;;5075072;28;20481;-62
2022/09/11 11:03:15;;;;;;;61.20;5.07;;;;;;;;;;5075422;28;20475;-62
2022/09/11 11:05:47;;;;;;;60.03;4.70;;;;;;;;;;5075354;28;20545;-62
2022/09/11 11:08:29;;;;;;;59.97;5.00;;;;;;;;;;5075427;28;20455;-65
2022/09/11 11:11:14;;;;;;;59.00;3.50;;;;;;;;;;5075370;28;20493;-65
2022/09/11 11:13:49;;;;;;;60.70;3.57;;;;;;;;;;5074881;28;20463;-62
2022/09/11 11:16:19;;;;;;;58.70;3.00;;;;;;;;;;5075427;28;20443;-62
2022/09/11 11:18:53;;;;;;;96.17;6.33;;;;;;;;;;5074808;28;20880;-63
2022/09/11 11:21:26;;;;;;;58.40;3.00;;;;;;;;;;5075095;28;20484;-62
2022/09/11 11:23:58;;;;;;;59.00;3.03;;;;;;;;;;5074951;28;20471;-63
2022/09/11 11:26:36;;;;;;;58.50;3.17;;;;;;;;;;5074751;28;20444;-62
2022/09/11 11:29:19;;;;;;;58.07;3.17;;;;;;;;;;5072149;28;20455;-62
2022/09/11 11:31:52;;;;;;;58.10;3.30;;;;;;;;;;5074710;28;20443;-63
2022/09/11 11:34:26;;;;;;;58.80;3.27;;;;;;;;;;5073922;28;20478;-62
2022/09/11 11:36:56;;;;;;;58.50;3.27;;;;;;;;;;5075027;28;20483;-62
2022/09/11 11:39:26;;;;;;;58.50;3.50;;;;;;;;;;5074434;28;20454;-63
2022/09/11 11:42:00;;;;;;;58.97;3.17;;;;;;;;;;5074709;28;20490;-63
2022/09/11 11:44:30;;;;;;;62.07;4.37;;;;;;;;;;5074569;28;20544;-62
2022/09/11 11:46:59;;;;;;;59.50;2.93;;;;;;;;;;5074604;28;20455;-63
2022/09/11 11:49:35;;;;;;;58.33;3.10;;;;;;;;;;5074319;28;20451;-63
2022/09/11 11:52:04;;;;;;;58.70;2.77;;;;;;;;;;5074477;28;20447;-63
2022/09/11 11:54:36;;;;;;;58.00;3.00;;;;;;;;;;5074369;28;20463;-63
2022/09/11 11:57:10;;;;;;;58.03;2.70;;;;;;;;;;5074784;28;20454;-63
2022/09/11 11:59:42;;;;;;;62.30;3.20;;;;;;;;;;5073839;28;20455;-63
2022/09/11 12:02:14;;;;;;;58.40;3.50;;;;;;;;;;5073763;28;21001;-63
2022/09/11 12:04:47;;;;;;;58.40;3.13;;;;;;;;;;5074134;28;20558;-63
2022/09/11 12:07:16;;;;;;;61.90;3.47;;;;;;;;;;5074128;28;20458;-63
2022/09/11 12:09:48;;;;;;;57.97;2.93;;;;;;;;;;5073723;28;20474;-63
2022/09/11 12:12:16;;;;;;;57.70;3.10;;;;;;;;;;5073847;28;20447;-64
2022/09/11 12:14:49;;;;;;;58.47;3.37;;;;;;;;;;5074169;28;20486;-64
2022/09/11 12:17:17;;;;;;;58.50;2.77;;;;;;;;;;5073938;28;20444;-63
2022/09/11 12:20:01;;;;;;;59.40;2.93;;;;;;;;;;5073638;28;20477;-63
2022/09/11 12:22:39;;;;;;;57.87;2.87;;;;;;;;;;5071163;28;20495;-63
2022/09/11 12:25:26;;;;;;;58.00;3.40;;;;;;;;;;5074078;28;20444;-63
2022/09/11 12:28:09;;;;;;;57.80;2.77;;;;;;;;;;5073630;28;20944;-63
2022/09/11 12:30:51;;;;;;;57.57;2.77;;;;;;;;;;5073499;28;20800;-63
2022/09/11 12:33:33;;;;;;;57.57;2.73;;;;;;;;;;5073736;28;20554;-64
2022/09/11 12:36:01;;;;;;;57.57;3.07;;;;;;;;;;5073475;28;20455;-63
2022/09/11 12:38:32;;;;;;;59.23;3.20;;;;;;;;;;5073527;28;20466;-63
2022/09/11 12:41:06;;;;;;;57.80;2.87;;;;;;;;;;5073468;28;20487;-63
2022/09/11 12:43:46;;;;;;;58.93;3.10;;;;;;;;;;5073328;28;20506;-63
2022/09/11 12:46:34;;;;;;;58.43;3.20;;;;;;;;;;5073692;28;20796;-63
2022/09/11 12:49:07;;;;;;;58.00;2.67;;;;;;;;;;5072886;28;20448;-63
2022/09/11 12:51:37;;;;;;;58.50;3.03;;;;;;;;;;5073288;28;20539;-62
2022/09/11 12:54:12;;;;;;;58.80;3.00;;;;;;;;;;5070978;28;20479;-62
2022/09/11 12:56:46;;;;;;;58.80;3.37;;;;;;;;;;5073439;28;20455;-63
2022/09/11 12:59:22;;;;;;;58.50;3.47;;;;;;;;;;5072943;28;20458;-63
2022/09/11 13:01:50;;;;;;;59.47;4.00;;;;;;;;;;5073123;28;20479;-62
2022/09/11 13:04:19;;;;;;;59.80;4.03;;;;;;;;;;5072524;28;20896;-63
2022/09/11 13:06:47;;;;;;;60.47;3.43;;;;;;;;;;5072690;28;20447;-63
2022/09/11 13:09:21;;;;;;;59.23;3.97;;;;;;;;;;5072529;28;20451;-64
2022/09/11 13:11:49;;;;;;;58.97;3.70;;;;;;;;;;5072975;28;20449;-62
2022/09/11 13:14:35;;;;;;;59.43;4.13;;;;;;;;;;5071996;28;20904;-64
2022/09/11 13:17:03;;;;;;;59.67;4.03;;;;;;;;;;5072943;28;20451;-63
2022/09/11 13:19:32;;;;;;;60.00;4.47;;;;;;;;;;5072628;28;20542;-63
2022/09/11 13:21:59;;;;;;;59.23;4.10;;;;;;;;;;5072836;28;20490;-64
2022/09/11 13:24:29;;;;;;;60.50;4.77;;;;;;;;;;5072620;28;20497;-63
2022/09/11 13:26:58;;;;;;;60.07;4.20;;;;;;;;;;5072671;28;20447;-63
2022/09/11 13:29:28;;;;;;;60.13;4.40;;;;;;;;;;5072089;28;20491;-64
2022/09/11 13:31:56;;;;;;;59.77;4.30;;;;;;;;;;5072662;28;20458;-62
2022/09/11 13:34:25;;;;;;;59.13;4.10;;;;;;;;;;5072447;28;20494;-64
2022/09/11 13:36:53;;;;;;;59.57;4.40;;;;;;;;;;5072500;28;20453;-63
2022/09/11 13:39:20;;;;;;;59.40;4.00;;;;;;;;;;5072009;28;20458;-63
2022/09/11 13:41:50;;;;;;;59.97;4.27;;;;;;;;;;5072111;28;20839;-63
2022/09/11 13:44:27;;;;;;;59.70;3.60;;;;;;;;;;5072498;28;20464;-64
2022/09/11 13:46:54;;;;;;;59.23;4.00;;;;;;;;;;5072426;28;20451;-63
2022/09/11 13:49:26;;;;;;;59.20;3.77;;;;;;;;;;5071829;28;20451;-63
2022/09/11 13:51:54;;;;;;;59.77;4.60;;;;;;;;;;5072268;28;20454;-64
2022/09/11 13:54:25;;;;;;;58.70;3.50;;;;;;;;;;5071941;28;20847;-63
2022/09/11 13:57:07;;;;;;;60.27;4.57;;;;;;;;;;5072234;28;20448;-63
2022/09/11 13:59:38;;;;;;;59.77;3.70;;;;;;;;;;5071726;28;20454;-63
2022/09/11 14:02:07;;;;;;;59.50;4.70;;;;;;;;;;5072125;28;20839;-62
2022/09/11 14:04:39;;;;;;;60.67;4.10;;;;;;;;;;5071908;28;20473;-63
2022/09/11 14:07:13;;;;;;;59.30;3.93;;;;;;;;;;5072028;28;20443;-63
2022/09/11 14:09:41;;;;;;;59.50;4.13;;;;;;;;;;5071557;28;20446;-63
2022/09/11 14:12:08;;;;;;;60.07;3.60;;;;;;;;;;5072040;28;20513;-63
2022/09/11 14:14:36;;;;;;;58.40;3.57;;;;;;;;;;5071892;28;20471;-63
2022/09/11 14:17:03;;;;;;;59.17;3.67;;;;;;;;;;5071781;28;20465;-62
2022/09/11 14:19:32;;;;;;;59.33;3.90;;;;;;;;;;5071359;28;20449;-62
2022/09/11 14:22:00;;;;;;;59.13;3.80;;;;;;;;;;5071853;28;21023;-63
2022/09/11 14:24:28;;;;;;;59.53;4.40;;;;;;;;;;5071594;28;20470;-62
2022/09/11 14:26:57;;;;;;;59.87;4.30;;;;;;;;;;5071366;28;20447;-63
2022/09/11 14:29:25;;;;;;;58.80;3.60;;;;;;;;;;5071359;28;20447;-63
2022/09/11 14:31:53;;;;;;;58.97;3.77;;;;;;;;;;5071570;28;20451;-63
2022/09/11 14:34:21;;;;;;;60.50;3.80;;;;;;;;;;5071449;28;20479;-62
2022/09/11 14:36:52;;;;;;;59.00;3.33;;;;;;;;;;5071643;28;20474;-62
2022/09/11 14:39:24;;;;;;;58.53;3.40;;;;;;;;;;5071333;28;20447;-63
2022/09/11 14:41:51;;;;;;;85.73;5.70;;;;;;;;;;5071566;28;20471;-62
2022/09/11 14:44:19;;;;;;;58.30;2.90;;;;;;;;;;5071436;28;20473;-63
2022/09/11 14:46:46;;;;;;;58.77;3.80;;;;;;;;;;5071734;28;20939;-63